createdAt,value
2019-06-01T00:01:09.176Z,52.11
2019-06-01T00:03:38.514Z,52.31
2019-06-01T00:06:07.988Z,52.39
2019-06-01T00:08:40.148Z,52.48
2019-06-01T00:11:09.070Z,52.48
2019-06-01T00:13:41.556Z,52.54
2019-06-01T00:16:11.224Z,52.70
2019-06-01T00:18:41.912Z,52.92
2019-06-01T00:21:11.174Z,53.05
2019-06-01T00:23:40.784Z,53.20
2019-06-01T00:26:10.004Z,53.42
2019-06-01T00:28:39.219Z,53.63
2019-06-01T00:31:08.559Z,53.72
2019-06-01T00:33:37.768Z,53.82
2019-06-01T00:36:06.978Z,54.13
2019-06-01T00:38:37.094Z,54.17
2019-06-01T00:41:06.422Z,54.24
2019-06-01T00:43:35.634Z,54.38
2019-06-01T00:46:05.485Z,54.38
2019-06-01T00:48:34.709Z,54.41
2019-06-01T00:51:03.918Z,54.45
2019-06-01T00:53:33.482Z,54.56
2019-06-01T00:56:02.699Z,54.66
2019-06-01T00:58:31.903Z,54.80
2019-06-01T01:01:01.589Z,54.95
2019-06-01T01:03:30.791Z,55.09
2019-06-01T01:06:01.189Z,55.21
2019-06-01T01:08:30.754Z,55.36
2019-06-01T01:11:00.035Z,55.55
2019-06-01T01:13:29.313Z,55.51
2019-06-01T01:15:58.675Z,55.66
2019-06-01T01:18:27.879Z,55.75
2019-06-01T01:20:57.078Z,55.91
2019-06-01T01:23:26.511Z,55.92
2019-06-01T01:25:56.639Z,56.06
2019-06-01T01:28:25.975Z,56.18
2019-06-01T01:31:06.869Z,56.38
2019-06-01T01:33:26.481Z,56.60
2019-06-01T01:35:55.913Z,56.69
2019-06-01T01:38:26.403Z,56.72
2019-06-01T01:40:56.259Z,56.78
2019-06-01T01:43:25.454Z,56.77
2019-06-01T01:45:54.919Z,56.90
2019-06-01T01:48:24.212Z,57.01
2019-06-01T01:50:54.295Z,57.17
2019-06-01T01:53:23.850Z,57.26
2019-06-01T01:55:53.176Z,57.30
2019-06-01T01:58:22.380Z,57.50
2019-06-01T02:00:54.095Z,57.59
2019-06-01T02:03:22.788Z,57.83
2019-06-01T02:05:52.957Z,57.98
2019-06-01T02:08:22.709Z,58.18
2019-06-01T02:10:53.209Z,58.15
2019-06-01T02:13:22.417Z,58.24
2019-06-01T02:15:52.326Z,58.22
2019-06-01T02:18:21.527Z,58.28
2019-06-01T02:20:50.741Z,58.54
2019-06-01T02:23:20.256Z,58.64
2019-06-01T02:25:49.646Z,58.90
2019-06-01T02:28:18.945Z,58.78
2019-06-01T02:30:48.338Z,58.76
2019-06-01T02:33:18.781Z,58.81
2019-06-01T02:35:48.028Z,58.75
2019-06-01T02:38:17.421Z,58.88
2019-06-01T02:40:46.627Z,59.04
2019-06-01T02:43:15.873Z,59.07
2019-06-01T02:45:45.386Z,59.03
2019-06-01T02:48:14.639Z,59.06
2019-06-01T02:50:43.896Z,59.50
2019-06-01T02:53:14.633Z,59.72
2019-06-01T02:55:44.219Z,59.98
2019-06-01T02:58:15.059Z,59.79
2019-06-01T03:01:28.836Z,59.68
2019-06-01T03:03:59.663Z,59.66
2019-06-01T03:06:31.941Z,59.38
2019-06-01T03:09:06.686Z,59.38
2019-06-01T03:11:37.894Z,59.31
2019-06-01T03:14:09.756Z,59.15
2019-06-01T03:16:40.896Z,59.06
2019-06-01T03:19:11.997Z,58.93
2019-06-01T03:21:44.094Z,59.00
2019-06-01T03:24:13.902Z,58.97
2019-06-01T03:26:45.979Z,58.95
2019-06-01T03:29:20.553Z,58.92
2019-06-01T03:31:49.757Z,58.67
2019-06-01T03:34:18.979Z,58.51
2019-06-01T03:36:48.509Z,58.39
2019-06-01T03:39:17.926Z,58.24
2019-06-01T03:41:47.129Z,58.17
2019-06-01T03:44:16.551Z,58.08
2019-06-01T03:46:45.932Z,58.01
2019-06-01T03:49:15.224Z,57.90
2019-06-01T03:51:44.817Z,57.78
2019-06-01T03:54:14.038Z,57.64
2019-06-01T03:56:43.263Z,57.70
2019-06-01T03:59:12.706Z,57.63
2019-06-01T04:01:41.908Z,57.54
2019-06-01T04:04:11.319Z,57.57
2019-06-01T04:06:40.935Z,57.64
2019-06-01T04:09:10.292Z,57.52
2019-06-01T04:11:39.501Z,57.52
2019-06-01T04:14:09.893Z,57.54
2019-06-01T04:16:42.333Z,57.50
2019-06-01T04:19:12.205Z,57.56
2019-06-01T04:21:41.492Z,57.59
2019-06-01T04:24:10.711Z,57.82
2019-06-01T04:26:40.119Z,57.84
2019-06-01T04:29:10.383Z,57.78
2019-06-01T04:31:39.642Z,57.64
2019-06-01T04:34:09.048Z,57.63
2019-06-01T04:36:38.311Z,57.92
2019-06-01T04:39:09.335Z,57.84
2019-06-01T04:41:39.001Z,57.76
2019-06-01T04:44:09.932Z,57.91
2019-06-01T04:46:39.270Z,58.04
2019-06-01T04:49:08.967Z,58.11
2019-06-01T04:51:38.207Z,58.10
2019-06-01T04:54:07.430Z,58.22
2019-06-01T04:56:36.829Z,58.40
2019-06-01T04:59:06.847Z,58.36
2019-06-01T05:01:36.055Z,58.21
2019-06-01T05:04:05.523Z,58.12
2019-06-01T05:06:34.857Z,58.03
2019-06-01T05:09:07.263Z,58.27
2019-06-01T05:11:36.589Z,58.39
2019-06-01T05:14:07.540Z,58.41
2019-06-01T05:16:37.282Z,58.50
2019-06-01T05:19:06.494Z,58.41
2019-06-01T05:21:35.759Z,58.20
2019-06-01T05:24:06.589Z,58.05
2019-06-01T05:26:36.062Z,58.03
2019-06-01T05:29:05.546Z,57.94
2019-06-01T05:31:34.925Z,57.68
2019-06-01T05:34:04.356Z,57.44
2019-06-01T05:36:33.605Z,57.34
2019-06-01T05:39:03.363Z,57.17
2019-06-01T05:41:32.553Z,56.96
2019-06-01T05:44:01.814Z,56.97
2019-06-01T05:46:31.112Z,57.15
2019-06-01T05:49:00.360Z,57.18
2019-06-01T05:51:29.593Z,57.29
2019-06-01T05:53:58.911Z,57.27
2019-06-01T05:56:28.138Z,56.99
2019-06-01T05:58:57.393Z,56.74
2019-06-01T06:01:26.788Z,56.64
2019-06-01T06:03:56.010Z,56.61
2019-06-01T06:06:25.359Z,56.56
2019-06-01T06:08:54.833Z,56.42
2019-06-01T06:11:24.071Z,56.48
2019-06-01T06:13:53.458Z,56.66
2019-06-01T06:16:22.839Z,56.75
2019-06-01T06:18:52.151Z,56.60
2019-06-01T06:21:22.421Z,56.36
2019-06-01T06:23:52.073Z,56.28
2019-06-01T06:26:22.583Z,56.00
2019-06-01T06:28:52.435Z,55.62
2019-06-01T06:31:23.270Z,55.34
2019-06-01T06:33:56.547Z,55.63
2019-06-01T06:36:23.999Z,55.68
2019-06-01T06:38:54.647Z,55.48
2019-06-01T06:41:24.432Z,55.30
2019-06-01T06:43:54.058Z,55.30
2019-06-01T06:46:23.335Z,55.34
2019-06-01T06:48:52.542Z,55.53
2019-06-01T06:51:21.896Z,55.48
2019-06-01T06:53:51.110Z,55.10
2019-06-01T06:56:20.319Z,55.17
2019-06-01T06:58:49.840Z,55.11
2019-06-01T07:01:19.054Z,54.53
2019-06-01T07:03:48.262Z,54.20
2019-06-01T07:06:17.854Z,54.08
2019-06-01T07:08:48.941Z,54.16
2019-06-01T07:11:19.108Z,54.05
2019-06-01T07:13:48.818Z,53.76
2019-06-01T07:16:19.233Z,53.76
2019-06-01T07:18:48.844Z,53.69
2019-06-01T07:21:19.457Z,53.35
2019-06-01T07:23:48.842Z,53.00
2019-06-01T07:26:18.140Z,52.78
2019-06-01T07:28:47.682Z,52.48
2019-06-01T07:31:16.900Z,52.34
2019-06-01T07:33:46.110Z,51.83
2019-06-01T07:36:15.585Z,51.32
2019-06-01T07:38:45.092Z,51.01
2019-06-01T07:41:14.383Z,50.93
2019-06-01T07:43:43.830Z,50.35
2019-06-01T07:46:13.050Z,50.22
2019-06-01T07:48:42.397Z,49.61
2019-06-01T07:51:11.728Z,48.67
2019-06-01T07:53:40.959Z,48.64
2019-06-01T07:56:10.184Z,47.98
2019-06-01T07:58:39.697Z,47.73
2019-06-01T08:01:08.911Z,47.26
2019-06-01T08:03:38.113Z,46.98
2019-06-01T08:06:07.697Z,46.65
2019-06-01T08:08:36.896Z,45.96
2019-06-01T08:11:06.141Z,45.50
2019-06-01T08:13:35.987Z,44.70
2019-06-01T08:16:05.419Z,43.01
2019-06-01T08:18:34.743Z,42.23
2019-06-01T08:21:04.308Z,41.20
2019-06-01T08:23:33.527Z,41.19
2019-06-01T08:26:02.855Z,40.77
2019-06-01T08:28:32.751Z,38.99
2019-06-01T08:31:02.159Z,38.25
2019-06-01T08:33:33.278Z,37.68
2019-06-01T08:36:02.584Z,37.62
2019-06-01T08:38:31.800Z,36.92
2019-06-01T08:41:01.135Z,36.74
2019-06-01T08:43:31.773Z,35.19
2019-06-01T08:46:01.058Z,35.05
2019-06-01T08:48:30.258Z,35.03
2019-06-01T08:50:59.709Z,34.61
2019-06-01T08:53:30.026Z,34.52
2019-06-01T08:55:59.492Z,34.16
2019-06-01T08:58:28.842Z,33.60
2019-06-01T09:00:58.061Z,33.14
2019-06-01T09:03:27.739Z,31.99
2019-06-01T09:05:57.393Z,31.84
2019-06-01T09:08:27.118Z,32.02
2019-06-01T09:10:56.572Z,31.57
2019-06-01T09:13:27.195Z,31.69
2019-06-01T09:15:56.447Z,31.38
2019-06-01T09:18:27.556Z,31.38
2019-06-01T09:20:57.606Z,31.42
2019-06-01T09:23:27.609Z,31.02
2019-06-01T09:25:57.195Z,31.01
2019-06-01T09:28:27.757Z,31.70
2019-06-01T09:30:57.086Z,32.23
2019-06-01T09:33:26.438Z,32.64
2019-06-01T09:35:56.563Z,33.15
2019-06-01T09:38:25.939Z,33.82
2019-06-01T09:40:55.354Z,34.65
2019-06-01T09:43:26.492Z,35.53
2019-06-01T09:45:56.077Z,36.34
2019-06-01T09:48:25.285Z,37.43
2019-06-01T09:50:54.651Z,38.58
2019-06-01T09:53:24.077Z,39.33
2019-06-01T09:55:53.298Z,40.21
2019-06-01T09:58:22.570Z,40.48
2019-06-01T10:00:51.880Z,41.05
2019-06-01T10:03:21.195Z,41.53
2019-06-01T10:06:01.584Z,42.35
2019-06-01T10:08:23.261Z,42.95
2019-06-01T10:10:52.919Z,43.34
2019-06-01T10:13:22.162Z,44.14
2019-06-01T10:15:51.515Z,44.70
2019-06-01T10:18:20.719Z,44.96
2019-06-01T10:20:50.052Z,45.47
2019-06-01T10:23:19.581Z,45.54
2019-06-01T10:25:49.223Z,45.97
2019-06-01T10:28:18.479Z,47.23
2019-06-01T10:30:48.182Z,47.97
2019-06-01T10:33:17.394Z,48.48
2019-06-01T10:35:46.646Z,48.26
2019-06-01T10:38:16.085Z,47.83
2019-06-01T10:40:45.302Z,47.71
2019-06-01T10:43:14.593Z,47.37
2019-06-01T10:45:44.052Z,47.35
2019-06-01T10:48:13.563Z,48.04
2019-06-01T10:50:42.893Z,48.47
2019-06-01T10:53:12.340Z,48.66
2019-06-01T10:55:42.495Z,48.70
2019-06-01T10:58:14.694Z,48.40
2019-06-01T11:00:50.004Z,48.52
2019-06-01T11:03:15.126Z,48.48
2019-06-01T11:05:44.384Z,48.27
2019-06-01T11:08:13.594Z,47.86
2019-06-01T11:10:43.301Z,47.60
2019-06-01T11:13:12.778Z,47.75
2019-06-01T11:15:43.246Z,47.57
2019-06-01T11:18:12.875Z,47.26
2019-06-01T11:20:42.129Z,47.01
2019-06-01T11:23:11.421Z,47.06
2019-06-01T11:25:41.646Z,47.31
2019-06-01T11:28:11.073Z,47.57
2019-06-01T11:30:40.406Z,48.50
2019-06-01T11:33:10.213Z,49.48
2019-06-01T11:35:39.482Z,50.50
2019-06-01T11:38:08.740Z,51.44
2019-06-01T11:40:38.649Z,51.75
2019-06-01T11:43:08.073Z,51.84
2019-06-01T11:45:38.745Z,51.75
2019-06-01T11:48:08.365Z,51.79
2019-06-01T11:50:38.742Z,51.97
2019-06-01T11:53:08.117Z,52.46
2019-06-01T11:55:37.595Z,52.76
2019-06-01T11:58:06.879Z,53.29
2019-06-01T12:00:37.441Z,53.20
2019-06-01T12:03:06.836Z,53.26
2019-06-01T12:05:36.287Z,53.15
2019-06-01T12:08:05.605Z,53.28
2019-06-01T12:10:35.036Z,53.80
2019-06-01T12:13:04.391Z,54.11
2019-06-01T12:15:33.599Z,54.26
2019-06-01T12:18:03.028Z,54.06
2019-06-01T12:20:32.279Z,54.57
2019-06-01T12:23:01.475Z,54.85
2019-06-01T12:25:30.930Z,55.08
2019-06-01T12:28:00.396Z,55.09
2019-06-01T12:30:29.609Z,55.29
2019-06-01T12:32:59.033Z,55.43
2019-06-01T12:35:28.362Z,55.52
2019-06-01T12:38:05.988Z,55.44
2019-06-01T12:40:28.674Z,55.21
2019-06-01T12:42:57.968Z,54.87
2019-06-01T12:45:27.186Z,54.92
2019-06-01T12:47:58.592Z,55.16
2019-06-01T12:50:27.601Z,55.76
2019-06-01T12:52:56.992Z,56.66
2019-06-01T12:55:26.202Z,57.45
2019-06-01T12:57:55.438Z,57.83
2019-06-01T13:00:25.224Z,58.27
2019-06-01T13:03:06.009Z,59.12
2019-06-01T13:05:25.447Z,59.87
2019-06-01T13:08:01.845Z,60.98
2019-06-01T13:10:25.803Z,61.39
2019-06-01T13:12:55.030Z,62.18
2019-06-01T13:15:24.445Z,62.55
2019-06-01T13:17:53.665Z,63.15
2019-06-01T13:20:22.899Z,63.87
2019-06-01T13:22:52.302Z,64.40
2019-06-01T13:25:21.556Z,64.83
2019-06-01T13:27:50.820Z,65.40
2019-06-01T13:30:21.228Z,65.74
2019-06-01T13:32:50.842Z,66.83
2019-06-01T13:35:20.087Z,67.44
2019-06-01T13:37:50.756Z,68.45
2019-06-01T13:40:20.175Z,69.13
2019-06-01T13:42:49.556Z,69.56
2019-06-01T13:45:18.979Z,69.67
2019-06-01T13:47:48.183Z,69.77
2019-06-01T13:50:18.234Z,70.22
2019-06-01T13:52:48.071Z,70.26
2019-06-01T13:55:17.511Z,70.26
2019-06-01T13:57:46.777Z,70.26
2019-06-01T14:00:29.426Z,70.41
2019-06-01T14:02:51.324Z,70.24
2019-06-01T14:05:18.798Z,70.03
2019-06-01T14:07:49.378Z,70.05
2019-06-01T14:10:19.450Z,70.09
2019-06-01T14:12:49.340Z,70.29
2019-06-01T14:15:19.319Z,70.20
2019-06-01T14:17:50.148Z,70.04
2019-06-01T14:20:19.556Z,70.23
2019-06-01T14:22:49.804Z,70.43
2019-06-01T14:25:19.355Z,70.45
2019-06-01T14:27:48.590Z,70.39
2019-06-01T14:30:17.805Z,70.42
2019-06-01T14:32:48.827Z,70.55
2019-06-01T14:35:18.084Z,70.61
2019-06-01T14:37:48.577Z,70.61
2019-06-01T14:40:18.316Z,70.89
2019-06-01T14:42:48.971Z,71.06
2019-06-01T14:45:18.815Z,71.24
2019-06-01T14:47:49.291Z,71.25
2019-06-01T14:50:18.851Z,71.66
2019-06-01T14:52:48.059Z,72.11
2019-06-01T14:55:17.905Z,72.60
2019-06-01T14:57:48.519Z,72.72
2019-06-01T15:00:18.672Z,73.02
2019-06-01T15:02:48.292Z,73.29
2019-06-01T15:05:17.655Z,73.08
2019-06-01T15:07:48.088Z,72.89
2019-06-01T15:10:17.697Z,72.92
2019-06-01T15:12:51.483Z,72.77
2019-06-01T15:15:18.253Z,72.50
2019-06-01T15:17:47.509Z,72.16
2019-06-01T15:20:16.864Z,71.91
2019-06-01T15:22:46.265Z,71.67
2019-06-01T15:25:15.866Z,71.15
2019-06-01T15:27:45.117Z,70.48
2019-06-01T15:30:14.927Z,70.04
2019-06-01T15:32:44.544Z,69.46
2019-06-01T15:35:15.229Z,69.32
2019-06-01T15:37:44.521Z,69.32
2019-06-01T15:40:13.930Z,69.03
2019-06-01T15:42:43.197Z,68.72
2019-06-01T15:45:13.147Z,68.16
2019-06-01T15:47:42.381Z,67.56
2019-06-01T15:50:12.559Z,67.33
2019-06-01T15:52:41.881Z,67.52
2019-06-01T15:55:12.379Z,67.60
2019-06-01T15:57:41.649Z,67.18
2019-06-01T16:00:11.902Z,66.36
2019-06-01T16:02:41.138Z,66.53
2019-06-01T16:05:10.603Z,66.42
2019-06-01T16:07:40.075Z,66.29
2019-06-01T16:10:09.726Z,66.17
2019-06-01T16:12:39.225Z,65.93
2019-06-01T16:15:09.351Z,66.03
2019-06-01T16:17:38.560Z,66.36
2019-06-01T16:20:08.911Z,66.69
2019-06-01T16:22:38.222Z,67.05
2019-06-01T16:25:07.975Z,67.41
2019-06-01T16:27:37.321Z,67.65
2019-06-01T16:30:07.788Z,67.10
2019-06-01T16:32:39.443Z,66.93
2019-06-01T16:35:08.435Z,66.70
2019-06-01T16:37:37.747Z,66.59
2019-06-01T16:40:09.894Z,66.46
2019-06-01T16:42:38.703Z,66.51
2019-06-01T16:45:08.576Z,66.69
2019-06-01T16:47:37.838Z,66.91
2019-06-01T16:50:07.902Z,66.98
2019-06-01T16:52:37.117Z,67.08
2019-06-01T16:55:07.352Z,67.22
2019-06-01T16:57:36.853Z,67.29
2019-06-01T17:00:07.564Z,67.25
2019-06-01T17:02:36.780Z,67.30
2019-06-01T17:05:07.010Z,67.28
2019-06-01T17:07:36.623Z,67.33
2019-06-01T17:10:23.933Z,67.59
2019-06-01T17:12:42.827Z,67.71
2019-06-01T17:15:09.102Z,67.74
2019-06-01T17:17:38.517Z,67.99
2019-06-01T17:20:09.599Z,68.14
2019-06-01T17:22:39.094Z,68.25
2019-06-01T17:25:08.391Z,68.41
2019-06-01T17:27:37.669Z,68.58
2019-06-01T17:30:11.510Z,68.76
2019-06-01T17:32:38.119Z,68.86
2019-06-01T17:35:07.357Z,69.14
2019-06-01T17:37:36.803Z,69.37
2019-06-01T17:40:06.492Z,69.55
2019-06-01T17:42:35.747Z,69.77
2019-06-01T17:45:06.380Z,69.81
2019-06-01T17:47:36.193Z,70.10
2019-06-01T17:50:07.390Z,70.37
2019-06-01T17:52:36.931Z,70.47
2019-06-01T17:55:07.027Z,70.93
2019-06-01T17:57:36.734Z,70.97
2019-06-01T18:00:09.621Z,71.19
2019-06-01T18:02:39.131Z,71.57
2019-06-01T18:05:08.364Z,71.64
2019-06-01T18:07:37.511Z,71.68
2019-06-01T18:10:08.111Z,71.35
2019-06-01T18:12:37.533Z,70.50
2019-06-01T18:15:07.927Z,70.10
2019-06-01T18:17:38.098Z,69.50
2019-06-01T18:20:08.845Z,68.67
2019-06-01T18:22:38.098Z,68.10
2019-06-01T18:25:08.640Z,68.24
2019-06-01T18:27:38.178Z,68.20
2019-06-01T18:30:08.738Z,68.43
2019-06-01T18:32:38.615Z,68.74
2019-06-01T18:35:09.235Z,68.81
2019-06-01T18:37:38.510Z,68.99
2019-06-01T18:40:09.705Z,69.27
2019-06-01T18:42:39.804Z,69.46
2019-06-01T18:45:11.725Z,69.71
2019-06-01T18:47:41.222Z,69.93
2019-06-01T18:50:14.714Z,69.96
2019-06-01T18:52:42.293Z,69.91
2019-06-01T18:55:12.653Z,69.92
2019-06-01T18:57:44.379Z,70.09
2019-06-01T19:00:15.656Z,69.93
2019-06-01T19:02:45.458Z,70.00
2019-06-01T19:05:15.549Z,70.00
2019-06-01T19:07:45.105Z,69.73
2019-06-01T19:10:15.811Z,69.41
2019-06-01T19:12:45.250Z,69.16
2019-06-01T19:15:27.612Z,69.03
2019-06-01T19:17:46.418Z,68.80
2019-06-01T19:20:17.316Z,68.52
2019-06-01T19:22:46.571Z,68.37
2019-06-01T19:25:17.555Z,68.24
2019-06-01T19:27:46.824Z,68.19
2019-06-01T19:30:32.416Z,68.18
2019-06-01T19:33:01.782Z,68.14
2019-06-01T19:35:32.062Z,68.12
2019-06-01T19:38:03.333Z,68.21
2019-06-01T19:40:40.514Z,68.24
2019-06-01T19:43:13.989Z,68.28
2019-06-01T19:45:43.614Z,68.18
2019-06-01T19:48:14.335Z,68.08
2019-06-01T19:50:43.761Z,68.11
2019-06-01T19:53:14.640Z,68.11
2019-06-01T19:55:44.296Z,68.14
2019-06-01T19:58:14.275Z,68.11
2019-06-01T20:00:44.107Z,68.12
2019-06-01T20:03:14.458Z,68.18
2019-06-01T20:05:44.254Z,68.16
2019-06-01T20:08:14.279Z,68.14
2019-06-01T20:10:43.735Z,68.04
2019-06-01T20:13:15.301Z,68.19
2019-06-01T20:15:44.774Z,68.32
2019-06-01T20:18:20.942Z,68.35
2019-06-01T20:20:50.198Z,68.37
2019-06-01T20:23:19.651Z,68.30
2019-06-01T20:25:48.948Z,68.39
2019-06-01T20:28:19.553Z,68.40
2019-06-01T20:30:51.862Z,68.43
2019-06-01T20:33:22.573Z,68.35
2019-06-01T20:35:55.402Z,68.31
2019-06-01T20:38:24.608Z,68.30
2019-06-01T20:40:53.807Z,68.32
2019-06-01T20:43:23.209Z,68.34
2019-06-01T20:45:52.424Z,68.22
2019-06-01T20:48:22.854Z,68.28
2019-06-01T20:50:52.362Z,68.22
2019-06-01T20:53:24.799Z,68.16
2019-06-01T20:55:54.561Z,68.13
2019-06-01T20:58:24.994Z,68.16
2019-06-01T21:00:54.196Z,68.20
2019-06-01T21:03:24.346Z,68.21
2019-06-01T21:05:53.818Z,68.19
2019-06-01T21:08:24.143Z,68.17
2019-06-01T21:10:54.202Z,68.23
2019-06-01T21:13:24.177Z,68.20
2019-06-01T21:15:53.655Z,68.16
2019-06-01T21:18:23.290Z,68.05
2019-06-01T21:20:52.784Z,68.02
2019-06-01T21:23:23.039Z,68.08
2019-06-01T21:25:52.685Z,68.09
2019-06-01T21:28:22.503Z,68.16
2019-06-01T21:30:53.202Z,68.24
2019-06-01T21:33:27.126Z,68.26
2019-06-01T21:35:54.889Z,68.32
2019-06-01T21:38:24.114Z,68.47
2019-06-01T21:40:54.367Z,68.44
2019-06-01T21:43:34.152Z,68.48
2019-06-01T21:45:54.843Z,68.55
2019-06-01T21:48:32.990Z,68.53
2019-06-01T21:51:02.809Z,68.57
2019-06-01T21:53:32.507Z,68.56
2019-06-01T21:56:07.203Z,68.64
2019-06-01T21:58:38.368Z,68.74
2019-06-01T22:01:08.065Z,68.83
2019-06-01T22:03:37.415Z,68.88
2019-06-01T22:06:06.963Z,69.03
2019-06-01T22:08:36.309Z,69.04
2019-06-01T22:11:05.630Z,69.05
2019-06-01T22:13:34.931Z,69.09
2019-06-01T22:16:04.532Z,69.10
2019-06-01T22:18:33.872Z,69.15
2019-06-01T22:21:03.241Z,69.35
2019-06-01T22:23:32.431Z,69.36
2019-06-01T22:26:01.657Z,69.33
2019-06-01T22:28:31.066Z,69.46
2019-06-01T22:31:00.280Z,69.58
2019-06-01T22:33:29.635Z,69.54
2019-06-01T22:35:58.945Z,69.57
2019-06-01T22:38:28.150Z,69.63
2019-06-01T22:40:57.505Z,69.53
2019-06-01T22:43:43.381Z,69.64
2019-06-01T22:45:58.027Z,69.48
2019-06-01T22:48:27.285Z,69.64
2019-06-01T22:50:56.823Z,69.64
2019-06-01T22:53:26.309Z,69.48
2019-06-01T22:55:55.487Z,69.47
2019-06-01T22:58:25.314Z,69.47
2019-06-01T23:00:54.674Z,69.54
2019-06-01T23:03:23.973Z,69.50
2019-06-01T23:05:53.344Z,69.53
2019-06-01T23:08:24.206Z,69.54
2019-06-01T23:10:54.592Z,69.59
2019-06-01T23:13:24.138Z,69.57
2019-06-01T23:15:53.581Z,69.59
2019-06-01T23:18:23.587Z,69.62
2019-06-01T23:20:53.103Z,69.56
2019-06-01T23:23:22.436Z,69.61
2019-06-01T23:25:52.030Z,69.60
2019-06-01T23:28:26.235Z,69.58
2019-06-01T23:30:59.973Z,69.59
2019-06-01T23:33:32.975Z,69.74
2019-06-01T23:36:05.357Z,69.66
2019-06-01T23:38:38.648Z,69.74
2019-06-01T23:41:12.345Z,69.76
2019-06-01T23:43:44.258Z,69.86
2019-06-01T23:46:15.991Z,69.99
2019-06-01T23:48:52.279Z,70.16
2019-06-01T23:51:25.338Z,70.16
2019-06-01T23:53:57.756Z,70.20
2019-06-01T23:56:29.971Z,70.64
2019-06-01T23:59:03.400Z,70.65
